sensor_id;sensor_type;location;lat;lon;timestamp;P1;durP1;ratioP1;P2;durP2;ratioP2
6757;SDS011;3416;53.074;8.822;2023-02-20T00:00:50;3.97;;;3.58;;
6757;SDS011;3416;53.074;8.822;2023-02-20T00:03:17;7.60;;;3.40;;
6757;SDS011;3416;53.074;8.822;2023-02-20T00:05:45;8.75;;;2.92;;
6757;SDS011;3416;53.074;8.822;2023-02-20T00:08:12;10.10;;;3.40;;
6757;SDS011;3416;53.074;8.822;2023-02-20T00:10:39;4.05;;;2.97;;
6757;SDS011;3416;53.074;8.822;2023-02-20T00:13:06;2.67;;;2.35;;
6757;SDS011;3416;53.074;8.822;2023-02-20T00:15:33;3.95;;;2.92;;
6757;SDS011;3416;53.074;8.822;2023-02-20T00:18:00;4.40;;;2.85;;
6757;SDS011;3416;53.074;8.822;2023-02-20T00:20:27;5.43;;;3.20;;
6757;SDS011;3416;53.074;8.822;2023-02-20T00:22:57;4.47;;;2.63;;
6757;SDS011;3416;53.074;8.822;2023-02-20T00:25:24;4.38;;;2.40;;
6757;SDS011;3416;53.074;8.822;2023-02-20T00:27:51;5.55;;;3.47;;
6757;SDS011;3416;53.074;8.822;2023-02-20T00:30:19;4.60;;;3.08;;
6757;SDS011;3416;53.074;8.822;2023-02-20T00:32:48;6.00;;;3.67;;
6757;SDS011;3416;53.074;8.822;2023-02-20T00:35:16;4.50;;;3.20;;
6757;SDS011;3416;53.074;8.822;2023-02-20T00:37:44;5.78;;;3.85;;
6757;SDS011;3416;53.074;8.822;2023-02-20T00:40:15;6.10;;;3.90;;
6757;SDS011;3416;53.074;8.822;2023-02-20T00:42:43;8.27;;;3.40;;
6757;SDS011;3416;53.074;8.822;2023-02-20T00:45:12;6.50;;;3.40;;
6757;SDS011;3416;53.074;8.822;2023-02-20T00:47:40;4.32;;;3.75;;
6757;SDS011;3416;53.074;8.822;2023-02-20T00:50:07;6.45;;;3.65;;
6757;SDS011;3416;53.074;8.822;2023-02-20T00:52:35;6.05;;;3.65;;
6757;SDS011;3416;53.074;8.822;2023-02-20T00:55:03;5.20;;;3.58;;
6757;SDS011;3416;53.074;8.822;2023-02-20T00:57:32;11.82;;;3.83;;
6757;SDS011;3416;53.074;8.822;2023-02-20T00:59:59;7.05;;;4.55;;
6757;SDS011;3416;53.074;8.822;2023-02-20T01:02:26;4.80;;;4.35;;
6757;SDS011;3416;53.074;8.822;2023-02-20T01:04:53;6.82;;;5.00;;
6757;SDS011;3416;53.074;8.822;2023-02-20T01:07:20;9.82;;;5.55;;
6757;SDS011;3416;53.074;8.822;2023-02-20T01:09:47;7.03;;;3.95;;
6757;SDS011;3416;53.074;8.822;2023-02-20T01:12:15;5.10;;;4.30;;
6757;SDS011;3416;53.074;8.822;2023-02-20T01:14:44;6.57;;;4.72;;
6757;SDS011;3416;53.074;8.822;2023-02-20T01:17:11;6.45;;;4.82;;
6757;SDS011;3416;53.074;8.822;2023-02-20T01:19:38;7.93;;;4.47;;
6757;SDS011;3416;53.074;8.822;2023-02-20T01:22:06;6.00;;;4.18;;
6757;SDS011;3416;53.074;8.822;2023-02-20T01:24:35;5.70;;;4.13;;
6757;SDS011;3416;53.074;8.822;2023-02-20T01:27:02;4.70;;;3.97;;
6757;SDS011;3416;53.074;8.822;2023-02-20T01:29:29;6.57;;;4.47;;
6757;SDS011;3416;53.074;8.822;2023-02-20T01:31:57;7.95;;;4.30;;
6757;SDS011;3416;53.074;8.822;2023-02-20T01:34:26;8.38;;;5.07;;
6757;SDS011;3416;53.074;8.822;2023-02-20T01:36:54;9.13;;;4.85;;
6757;SDS011;3416;53.074;8.822;2023-02-20T01:39:24;8.20;;;5.03;;
6757;SDS011;3416;53.074;8.822;2023-02-20T01:41:56;8.35;;;4.22;;
6757;SDS011;3416;53.074;8.822;2023-02-20T01:44:26;7.80;;;5.13;;
6757;SDS011;3416;53.074;8.822;2023-02-20T01:46:57;11.20;;;5.35;;
6757;SDS011;3416;53.074;8.822;2023-02-20T01:49:26;7.75;;;4.63;;
6757;SDS011;3416;53.074;8.822;2023-02-20T01:51:58;6.43;;;5.43;;
6757;SDS011;3416;53.074;8.822;2023-02-20T01:54:30;7.55;;;5.45;;
6757;SDS011;3416;53.074;8.822;2023-02-20T01:56:59;8.40;;;5.03;;
6757;SDS011;3416;53.074;8.822;2023-02-20T01:59:28;10.27;;;5.18;;
6757;SDS011;3416;53.074;8.822;2023-02-20T02:01:59;6.55;;;5.45;;
6757;SDS011;3416;53.074;8.822;2023-02-20T02:04:26;7.10;;;4.90;;
6757;SDS011;3416;53.074;8.822;2023-02-20T02:09:31;8.55;;;5.88;;
6757;SDS011;3416;53.074;8.822;2023-02-20T02:12:03;8.52;;;6.22;;
6757;SDS011;3416;53.074;8.822;2023-02-20T02:14:30;6.57;;;5.25;;
6757;SDS011;3416;53.074;8.822;2023-02-20T02:17:05;7.20;;;6.03;;
6757;SDS011;3416;53.074;8.822;2023-02-20T02:19:48;8.57;;;5.80;;
6757;SDS011;3416;53.074;8.822;2023-02-20T02:22:48;10.23;;;5.97;;
6757;SDS011;3416;53.074;8.822;2023-02-20T02:25:40;8.07;;;5.32;;
6757;SDS011;3416;53.074;8.822;2023-02-20T02:34:36;6.40;;;5.18;;
6757;SDS011;3416;53.074;8.822;2023-02-20T02:37:28;8.15;;;5.40;;
6757;SDS011;3416;53.074;8.822;2023-02-20T02:40:00;6.75;;;5.70;;
6757;SDS011;3416;53.074;8.822;2023-02-20T02:42:32;7.28;;;4.90;;
6757;SDS011;3416;53.074;8.822;2023-02-20T02:45:09;7.00;;;5.97;;
6757;SDS011;3416;53.074;8.822;2023-02-20T02:47:44;7.22;;;5.82;;
6757;SDS011;3416;53.074;8.822;2023-02-20T02:50:16;6.72;;;5.18;;
6757;SDS011;3416;53.074;8.822;2023-02-20T02:52:50;7.45;;;5.70;;
6757;SDS011;3416;53.074;8.822;2023-02-20T02:55:20;9.27;;;7.00;;
6757;SDS011;3416;53.074;8.822;2023-02-20T02:57:49;7.57;;;6.78;;
6757;SDS011;3416;53.074;8.822;2023-02-20T03:00:17;6.70;;;5.95;;
6757;SDS011;3416;53.074;8.822;2023-02-20T03:02:51;9.30;;;6.97;;
6757;SDS011;3416;53.074;8.822;2023-02-20T03:05:23;8.52;;;6.78;;
6757;SDS011;3416;53.074;8.822;2023-02-20T03:08:05;10.00;;;6.63;;
6757;SDS011;3416;53.074;8.822;2023-02-20T03:10:38;13.55;;;6.72;;
6757;SDS011;3416;53.074;8.822;2023-02-20T03:13:06;7.97;;;6.85;;
6757;SDS011;3416;53.074;8.822;2023-02-20T03:15:37;10.60;;;7.18;;
6757;SDS011;3416;53.074;8.822;2023-02-20T03:18:14;12.13;;;7.55;;
6757;SDS011;3416;53.074;8.822;2023-02-20T03:20:49;9.77;;;7.13;;
6757;SDS011;3416;53.074;8.822;2023-02-20T03:23:22;11.45;;;7.40;;
6757;SDS011;3416;53.074;8.822;2023-02-20T03:25:52;8.80;;;6.70;;
6757;SDS011;3416;53.074;8.822;2023-02-20T03:28:22;11.02;;;8.27;;
6757;SDS011;3416;53.074;8.822;2023-02-20T03:30:52;9.85;;;7.13;;
6757;SDS011;3416;53.074;8.822;2023-02-20T03:33:26;9.68;;;7.55;;
6757;SDS011;3416;53.074;8.822;2023-02-20T03:36:15;9.15;;;7.40;;
6757;SDS011;3416;53.074;8.822;2023-02-20T03:39:07;10.73;;;8.90;;
6757;SDS011;3416;53.074;8.822;2023-02-20T03:41:54;12.57;;;8.48;;
6757;SDS011;3416;53.074;8.822;2023-02-20T03:44:42;12.85;;;8.60;;
6757;SDS011;3416;53.074;8.822;2023-02-20T03:47:10;11.32;;;8.32;;
6757;SDS011;3416;53.074;8.822;2023-02-20T03:49:41;14.57;;;9.55;;
6757;SDS011;3416;53.074;8.822;2023-02-20T03:52:09;13.20;;;8.00;;
6757;SDS011;3416;53.074;8.822;2023-02-20T03:54:38;11.35;;;9.38;;
6757;SDS011;3416;53.074;8.822;2023-02-20T03:57:08;13.98;;;8.48;;
6757;SDS011;3416;53.074;8.822;2023-02-20T03:59:39;14.98;;;9.02;;
6757;SDS011;3416;53.074;8.822;2023-02-20T04:02:12;15.30;;;9.35;;
6757;SDS011;3416;53.074;8.822;2023-02-20T04:04:45;13.32;;;10.48;;
6757;SDS011;3416;53.074;8.822;2023-02-20T04:07:15;15.23;;;9.45;;
6757;SDS011;3416;53.074;8.822;2023-02-20T04:09:56;11.73;;;9.32;;
6757;SDS011;3416;53.074;8.822;2023-02-20T04:12:28;15.45;;;10.00;;
6757;SDS011;3416;53.074;8.822;2023-02-20T04:14:59;12.05;;;8.55;;
6757;SDS011;3416;53.074;8.822;2023-02-20T04:17:30;15.52;;;9.23;;
6757;SDS011;3416;53.074;8.822;2023-02-20T04:20:01;13.68;;;9.75;;
6757;SDS011;3416;53.074;8.822;2023-02-20T04:22:30;14.25;;;9.55;;
6757;SDS011;3416;53.074;8.822;2023-02-20T04:25:05;11.88;;;8.18;;
6757;SDS011;3416;53.074;8.822;2023-02-20T04:27:38;15.00;;;9.05;;
6757;SDS011;3416;53.074;8.822;2023-02-20T04:30:05;12.32;;;9.10;;
6757;SDS011;3416;53.074;8.822;2023-02-20T04:32:34;13.02;;;8.85;;
6757;SDS011;3416;53.074;8.822;2023-02-20T04:35:01;15.35;;;10.27;;
6757;SDS011;3416;53.074;8.822;2023-02-20T04:37:28;15.55;;;10.40;;
6757;SDS011;3416;53.074;8.822;2023-02-20T04:39:56;17.42;;;9.45;;
6757;SDS011;3416;53.074;8.822;2023-02-20T04:42:24;15.43;;;9.40;;
6757;SDS011;3416;53.074;8.822;2023-02-20T04:44:51;14.52;;;9.45;;
6757;SDS011;3416;53.074;8.822;2023-02-20T04:47:19;19.58;;;9.40;;
6757;SDS011;3416;53.074;8.822;2023-02-20T04:49:47;14.32;;;10.57;;
6757;SDS011;3416;53.074;8.822;2023-02-20T04:52:16;15.95;;;10.07;;
6757;SDS011;3416;53.074;8.822;2023-02-20T04:54:43;14.45;;;10.30;;
6757;SDS011;3416;53.074;8.822;2023-02-20T04:57:10;13.05;;;11.05;;
6757;SDS011;3416;53.074;8.822;2023-02-20T04:59:38;12.82;;;10.68;;
6757;SDS011;3416;53.074;8.822;2023-02-20T05:02:05;24.13;;;9.63;;
6757;SDS011;3416;53.074;8.822;2023-02-20T05:04:33;15.52;;;11.02;;
6757;SDS011;3416;53.074;8.822;2023-02-20T05:07:01;14.40;;;10.80;;
6757;SDS011;3416;53.074;8.822;2023-02-20T05:09:28;16.02;;;11.18;;
6757;SDS011;3416;53.074;8.822;2023-02-20T05:11:55;14.70;;;10.35;;
6757;SDS011;3416;53.074;8.822;2023-02-20T05:14:22;18.13;;;12.02;;
6757;SDS011;3416;53.074;8.822;2023-02-20T05:16:51;12.93;;;10.00;;
6757;SDS011;3416;53.074;8.822;2023-02-20T05:19:18;14.45;;;11.77;;
6757;SDS011;3416;53.074;8.822;2023-02-20T05:21:45;22.30;;;11.98;;
6757;SDS011;3416;53.074;8.822;2023-02-20T05:24:30;17.20;;;11.88;;
6757;SDS011;3416;53.074;8.822;2023-02-20T05:26:57;17.27;;;13.05;;
6757;SDS011;3416;53.074;8.822;2023-02-20T05:29:25;21.27;;;14.07;;
6757;SDS011;3416;53.074;8.822;2023-02-20T05:31:54;21.83;;;14.25;;
6757;SDS011;3416;53.074;8.822;2023-02-20T05:34:21;20.25;;;13.02;;
6757;SDS011;3416;53.074;8.822;2023-02-20T05:36:49;17.95;;;12.35;;
6757;SDS011;3416;53.074;8.822;2023-02-20T05:39:19;18.02;;;12.60;;
6757;SDS011;3416;53.074;8.822;2023-02-20T05:41:46;18.17;;;12.95;;
6757;SDS011;3416;53.074;8.822;2023-02-20T05:44:14;20.20;;;14.05;;
6757;SDS011;3416;53.074;8.822;2023-02-20T05:46:41;20.20;;;14.52;;
6757;SDS011;3416;53.074;8.822;2023-02-20T05:49:10;23.13;;;13.77;;
6757;SDS011;3416;53.074;8.822;2023-02-20T05:51:37;16.52;;;13.02;;
6757;SDS011;3416;53.074;8.822;2023-02-20T05:54:04;21.25;;;15.07;;
6757;SDS011;3416;53.074;8.822;2023-02-20T05:56:31;25.05;;;15.00;;
6757;SDS011;3416;53.074;8.822;2023-02-20T05:58:58;21.88;;;14.65;;
6757;SDS011;3416;53.074;8.822;2023-02-20T06:01:26;23.20;;;16.13;;
6757;SDS011;3416;53.074;8.822;2023-02-20T06:03:55;23.70;;;15.20;;
6757;SDS011;3416;53.074;8.822;2023-02-20T06:06:23;26.63;;;15.38;;
6757;SDS011;3416;53.074;8.822;2023-02-20T06:08:56;20.80;;;15.43;;
6757;SDS011;3416;53.074;8.822;2023-02-20T06:11:23;22.60;;;15.57;;
6757;SDS011;3416;53.074;8.822;2023-02-20T06:13:50;20.60;;;15.90;;
6757;SDS011;3416;53.074;8.822;2023-02-20T06:16:20;22.20;;;18.10;;
6757;SDS011;3416;53.074;8.822;2023-02-20T06:18:48;22.08;;;17.67;;
6757;SDS011;3416;53.074;8.822;2023-02-20T06:21:16;25.38;;;16.85;;
6757;SDS011;3416;53.074;8.822;2023-02-20T06:23:44;26.08;;;18.40;;
6757;SDS011;3416;53.074;8.822;2023-02-20T06:26:12;27.77;;;17.92;;
6757;SDS011;3416;53.074;8.822;2023-02-20T06:28:45;26.98;;;19.05;;
6757;SDS011;3416;53.074;8.822;2023-02-20T06:31:19;26.88;;;20.15;;
6757;SDS011;3416;53.074;8.822;2023-02-20T06:33:48;24.35;;;20.33;;
6757;SDS011;3416;53.074;8.822;2023-02-20T06:36:18;24.17;;;18.60;;
6757;SDS011;3416;53.074;8.822;2023-02-20T06:38:49;26.52;;;19.90;;
6757;SDS011;3416;53.074;8.822;2023-02-20T06:41:17;30.67;;;20.05;;
6757;SDS011;3416;53.074;8.822;2023-02-20T06:43:44;28.08;;;18.15;;
6757;SDS011;3416;53.074;8.822;2023-02-20T06:46:11;27.38;;;19.90;;
6757;SDS011;3416;53.074;8.822;2023-02-20T06:48:42;32.97;;;21.05;;
6757;SDS011;3416;53.074;8.822;2023-02-20T06:51:10;26.10;;;19.50;;
6757;SDS011;3416;53.074;8.822;2023-02-20T06:53:37;27.25;;;20.52;;
6757;SDS011;3416;53.074;8.822;2023-02-20T06:56:10;27.50;;;19.77;;
6757;SDS011;3416;53.074;8.822;2023-02-20T06:58:42;25.33;;;18.75;;
6757;SDS011;3416;53.074;8.822;2023-02-20T07:01:10;29.95;;;19.25;;
6757;SDS011;3416;53.074;8.822;2023-02-20T07:03:37;30.08;;;20.42;;
6757;SDS011;3416;53.074;8.822;2023-02-20T07:06:05;30.80;;;21.30;;
6757;SDS011;3416;53.074;8.822;2023-02-20T07:08:32;32.30;;;19.45;;
6757;SDS011;3416;53.074;8.822;2023-02-20T07:10:59;30.52;;;20.50;;
6757;SDS011;3416;53.074;8.822;2023-02-20T07:13:28;34.20;;;22.77;;
6757;SDS011;3416;53.074;8.822;2023-02-20T07:15:55;35.60;;;20.85;;
6757;SDS011;3416;53.074;8.822;2023-02-20T07:18:22;34.83;;;19.90;;
6757;SDS011;3416;53.074;8.822;2023-02-20T07:20:52;31.13;;;20.40;;
6757;SDS011;3416;53.074;8.822;2023-02-20T07:23:20;28.92;;;20.58;;
6757;SDS011;3416;53.074;8.822;2023-02-20T07:25:47;31.83;;;21.42;;
6757;SDS011;3416;53.074;8.822;2023-02-20T07:28:14;30.05;;;23.60;;
6757;SDS011;3416;53.074;8.822;2023-02-20T07:30:43;29.95;;;21.58;;
6757;SDS011;3416;53.074;8.822;2023-02-20T07:33:13;34.35;;;23.00;;
6757;SDS011;3416;53.074;8.822;2023-02-20T07:35:40;36.00;;;21.42;;
6757;SDS011;3416;53.074;8.822;2023-02-20T07:38:08;32.25;;;22.38;;
6757;SDS011;3416;53.074;8.822;2023-02-20T07:40:35;31.60;;;20.90;;
6757;SDS011;3416;53.074;8.822;2023-02-20T07:43:02;32.03;;;22.77;;
6757;SDS011;3416;53.074;8.822;2023-02-20T07:45:33;40.55;;;23.85;;
6757;SDS011;3416;53.074;8.822;2023-02-20T07:48:01;38.08;;;22.40;;
6757;SDS011;3416;53.074;8.822;2023-02-20T07:50:28;33.88;;;22.38;;
6757;SDS011;3416;53.074;8.822;2023-02-20T07:52:55;30.58;;;22.52;;
6757;SDS011;3416;53.074;8.822;2023-02-20T07:55:22;32.67;;;23.35;;
6757;SDS011;3416;53.074;8.822;2023-02-20T07:57:49;35.13;;;23.80;;
6757;SDS011;3416;53.074;8.822;2023-02-20T08:00:19;35.83;;;21.90;;
6757;SDS011;3416;53.074;8.822;2023-02-20T08:02:46;28.73;;;21.42;;
6757;SDS011;3416;53.074;8.822;2023-02-20T08:05:14;38.67;;;25.27;;
6757;SDS011;3416;53.074;8.822;2023-02-20T08:07:43;42.60;;;23.05;;
6757;SDS011;3416;53.074;8.822;2023-02-20T08:10:11;42.97;;;22.27;;
6757;SDS011;3416;53.074;8.822;2023-02-20T08:12:39;37.20;;;25.30;;
6757;SDS011;3416;53.074;8.822;2023-02-20T08:15:06;36.22;;;24.50;;
6757;SDS011;3416;53.074;8.822;2023-02-20T08:17:37;40.85;;;24.58;;
6757;SDS011;3416;53.074;8.822;2023-02-20T08:20:05;27.77;;;20.65;;
6757;SDS011;3416;53.074;8.822;2023-02-20T08:22:34;40.65;;;23.08;;
6757;SDS011;3416;53.074;8.822;2023-02-20T08:25:01;39.58;;;24.65;;
6757;SDS011;3416;53.074;8.822;2023-02-20T08:27:29;35.47;;;21.60;;
6757;SDS011;3416;53.074;8.822;2023-02-20T08:29:56;42.67;;;23.17;;
6757;SDS011;3416;53.074;8.822;2023-02-20T08:32:23;45.92;;;23.70;;
6757;SDS011;3416;53.074;8.822;2023-02-20T08:34:50;68.03;;;27.60;;
6757;SDS011;3416;53.074;8.822;2023-02-20T08:37:17;55.53;;;28.60;;
6757;SDS011;3416;53.074;8.822;2023-02-20T08:39:52;124.32;;;37.40;;
6757;SDS011;3416;53.074;8.822;2023-02-20T08:42:19;56.28;;;26.30;;
6757;SDS011;3416;53.074;8.822;2023-02-20T08:44:46;43.58;;;24.85;;
6757;SDS011;3416;53.074;8.822;2023-02-20T08:47:13;53.70;;;26.55;;
6757;SDS011;3416;53.074;8.822;2023-02-20T08:49:45;46.47;;;25.30;;
6757;SDS011;3416;53.074;8.822;2023-02-20T08:52:12;35.80;;;22.75;;
6757;SDS011;3416;53.074;8.822;2023-02-20T08:54:39;47.33;;;25.30;;
6757;SDS011;3416;53.074;8.822;2023-02-20T08:57:11;44.22;;;23.42;;
6757;SDS011;3416;53.074;8.822;2023-02-20T08:59:38;35.45;;;22.52;;
6757;SDS011;3416;53.074;8.822;2023-02-20T09:02:05;35.85;;;23.90;;
6757;SDS011;3416;53.074;8.822;2023-02-20T09:04:34;43.40;;;24.90;;
6757;SDS011;3416;53.074;8.822;2023-02-20T09:07:01;50.08;;;27.08;;
6757;SDS011;3416;53.074;8.822;2023-02-20T09:09:27;94.65;;;32.13;;
6757;SDS011;3416;53.074;8.822;2023-02-20T09:11:55;44.60;;;25.08;;
6757;SDS011;3416;53.074;8.822;2023-02-20T09:14:23;54.45;;;25.80;;
6757;SDS011;3416;53.074;8.822;2023-02-20T09:16:50;68.93;;;27.48;;
6757;SDS011;3416;53.074;8.822;2023-02-20T09:19:18;32.63;;;22.80;;
6757;SDS011;3416;53.074;8.822;2023-02-20T09:21:45;47.05;;;24.90;;
6757;SDS011;3416;53.074;8.822;2023-02-20T09:24:12;33.92;;;21.58;;
6757;SDS011;3416;53.074;8.822;2023-02-20T09:26:39;36.53;;;21.40;;
6757;SDS011;3416;53.074;8.822;2023-02-20T09:29:06;42.58;;;24.20;;
6757;SDS011;3416;53.074;8.822;2023-02-20T09:31:34;35.38;;;25.13;;
6757;SDS011;3416;53.074;8.822;2023-02-20T09:34:01;39.05;;;25.52;;
6757;SDS011;3416;53.074;8.822;2023-02-20T09:36:29;35.35;;;23.15;;
6757;SDS011;3416;53.074;8.822;2023-02-20T09:38:56;39.13;;;23.17;;
6757;SDS011;3416;53.074;8.822;2023-02-20T09:41:32;35.72;;;25.50;;
6757;SDS011;3416;53.074;8.822;2023-02-20T09:44:09;37.15;;;23.80;;
6757;SDS011;3416;53.074;8.822;2023-02-20T09:46:44;33.85;;;22.85;;
6757;SDS011;3416;53.074;8.822;2023-02-20T09:49:14;41.42;;;24.38;;
6757;SDS011;3416;53.074;8.822;2023-02-20T09:51:44;37.97;;;24.15;;
6757;SDS011;3416;53.074;8.822;2023-02-20T09:54:19;34.92;;;22.23;;
6757;SDS011;3416;53.074;8.822;2023-02-20T09:56:53;32.33;;;21.30;;
6757;SDS011;3416;53.074;8.822;2023-02-20T09:59:23;37.95;;;21.58;;
6757;SDS011;3416;53.074;8.822;2023-02-20T10:01:56;33.45;;;20.08;;
6757;SDS011;3416;53.074;8.822;2023-02-20T10:04:27;41.05;;;23.23;;
6757;SDS011;3416;53.074;8.822;2023-02-20T10:07:00;45.72;;;18.83;;
6757;SDS011;3416;53.074;8.822;2023-02-20T10:09:34;27.70;;;17.98;;
6757;SDS011;3416;53.074;8.822;2023-02-20T10:12:04;29.67;;;18.15;;
6757;SDS011;3416;53.074;8.822;2023-02-20T10:14:42;30.90;;;19.33;;
6757;SDS011;3416;53.074;8.822;2023-02-20T10:17:25;35.58;;;20.70;;
6757;SDS011;3416;53.074;8.822;2023-02-20T10:20:02;26.90;;;17.17;;
6757;SDS011;3416;53.074;8.822;2023-02-20T10:22:35;37.55;;;20.20;;
6757;SDS011;3416;53.074;8.822;2023-02-20T10:25:12;32.17;;;17.50;;
6757;SDS011;3416;53.074;8.822;2023-02-20T10:27:51;28.33;;;18.52;;
6757;SDS011;3416;53.074;8.822;2023-02-20T10:30:22;31.55;;;17.60;;
6757;SDS011;3416;53.074;8.822;2023-02-20T10:32:55;24.02;;;17.10;;
6757;SDS011;3416;53.074;8.822;2023-02-20T10:35:30;27.13;;;16.33;;
6757;SDS011;3416;53.074;8.822;2023-02-20T10:38:02;25.10;;;15.23;;
6757;SDS011;3416;53.074;8.822;2023-02-20T10:40:33;26.55;;;16.80;;
6757;SDS011;3416;53.074;8.822;2023-02-20T10:43:08;36.75;;;17.42;;
6757;SDS011;3416;53.074;8.822;2023-02-20T10:45:44;30.95;;;18.30;;
6757;SDS011;3416;53.074;8.822;2023-02-20T10:48:17;29.75;;;15.57;;
6757;SDS011;3416;53.074;8.822;2023-02-20T10:50:46;24.02;;;14.88;;
6757;SDS011;3416;53.074;8.822;2023-02-20T10:53:26;16.52;;;14.50;;
6757;SDS011;3416;53.074;8.822;2023-02-20T10:55:59;27.27;;;17.42;;
6757;SDS011;3416;53.074;8.822;2023-02-20T10:58:33;20.63;;;16.27;;
6757;SDS011;3416;53.074;8.822;2023-02-20T11:01:04;25.95;;;17.65;;
6757;SDS011;3416;53.074;8.822;2023-02-20T11:03:38;18.70;;;12.52;;
6757;SDS011;3416;53.074;8.822;2023-02-20T11:06:11;24.25;;;12.52;;
6757;SDS011;3416;53.074;8.822;2023-02-20T11:08:41;22.92;;;12.68;;
6757;SDS011;3416;53.074;8.822;2023-02-20T11:11:18;23.67;;;12.63;;
6757;SDS011;3416;53.074;8.822;2023-02-20T11:13:48;20.00;;;12.35;;
6757;SDS011;3416;53.074;8.822;2023-02-20T11:16:20;24.35;;;12.55;;
6757;SDS011;3416;53.074;8.822;2023-02-20T11:18:55;18.23;;;12.10;;
6757;SDS011;3416;53.074;8.822;2023-02-20T11:21:38;20.27;;;12.32;;
6757;SDS011;3416;53.074;8.822;2023-02-20T11:24:28;17.63;;;12.25;;
6757;SDS011;3416;53.074;8.822;2023-02-20T11:27:10;21.75;;;11.00;;
6757;SDS011;3416;53.074;8.822;2023-02-20T11:29:41;19.23;;;12.30;;
6757;SDS011;3416;53.074;8.822;2023-02-20T11:32:26;17.67;;;11.23;;
6757;SDS011;3416;53.074;8.822;2023-02-20T11:35:14;16.95;;;13.98;;
6757;SDS011;3416;53.074;8.822;2023-02-20T11:37:51;19.88;;;14.63;;
6757;SDS011;3416;53.074;8.822;2023-02-20T11:40:42;21.92;;;12.73;;
6757;SDS011;3416;53.074;8.822;2023-02-20T11:43:13;23.17;;;12.10;;
6757;SDS011;3416;53.074;8.822;2023-02-20T11:45:44;20.50;;;10.90;;
6757;SDS011;3416;53.074;8.822;2023-02-20T11:48:12;19.55;;;11.00;;
6757;SDS011;3416;53.074;8.822;2023-02-20T11:50:42;16.40;;;11.75;;
6757;SDS011;3416;53.074;8.822;2023-02-20T11:53:17;14.07;;;9.80;;
6757;SDS011;3416;53.074;8.822;2023-02-20T11:55:45;14.45;;;10.65;;
6757;SDS011;3416;53.074;8.822;2023-02-20T11:58:20;13.85;;;10.57;;
6757;SDS011;3416;53.074;8.822;2023-02-20T12:00:49;16.48;;;10.63;;
6757;SDS011;3416;53.074;8.822;2023-02-20T12:03:18;13.00;;;8.52;;
6757;SDS011;3416;53.074;8.822;2023-02-20T12:05:49;15.27;;;8.82;;
6757;SDS011;3416;53.074;8.822;2023-02-20T12:08:27;15.30;;;10.07;;
6757;SDS011;3416;53.074;8.822;2023-02-20T12:11:00;18.63;;;11.52;;
6757;SDS011;3416;53.074;8.822;2023-02-20T12:13:30;14.85;;;11.63;;
6757;SDS011;3416;53.074;8.822;2023-02-20T12:16:07;15.18;;;9.70;;
6757;SDS011;3416;53.074;8.822;2023-02-20T12:18:50;16.00;;;8.70;;
6757;SDS011;3416;53.074;8.822;2023-02-20T12:21:26;14.52;;;10.45;;
6757;SDS011;3416;53.074;8.822;2023-02-20T12:24:04;10.57;;;8.38;;
6757;SDS011;3416;53.074;8.822;2023-02-20T12:26:42;17.20;;;8.35;;
6757;SDS011;3416;53.074;8.822;2023-02-20T12:29:25;21.40;;;8.93;;
6757;SDS011;3416;53.074;8.822;2023-02-20T12:32:13;14.13;;;8.23;;
6757;SDS011;3416;53.074;8.822;2023-02-20T12:34:50;18.00;;;8.82;;
6757;SDS011;3416;53.074;8.822;2023-02-20T12:37:32;14.32;;;9.80;;
6757;SDS011;3416;53.074;8.822;2023-02-20T12:40:20;17.42;;;9.38;;
6757;SDS011;3416;53.074;8.822;2023-02-20T12:42:56;12.65;;;8.45;;
6757;SDS011;3416;53.074;8.822;2023-02-20T12:45:48;14.60;;;7.78;;
6757;SDS011;3416;53.074;8.822;2023-02-20T12:48:26;13.68;;;8.13;;
6757;SDS011;3416;53.074;8.822;2023-02-20T12:51:05;14.40;;;8.70;;
6757;SDS011;3416;53.074;8.822;2023-02-20T12:53:49;11.13;;;7.80;;
6757;SDS011;3416;53.074;8.822;2023-02-20T12:56:31;12.48;;;8.30;;
6757;SDS011;3416;53.074;8.822;2023-02-20T12:59:09;10.88;;;8.70;;
6757;SDS011;3416;53.074;8.822;2023-02-20T13:01:47;12.95;;;8.30;;
6757;SDS011;3416;53.074;8.822;2023-02-20T13:04:19;14.05;;;8.32;;
6757;SDS011;3416;53.074;8.822;2023-02-20T13:06:53;14.70;;;7.95;;
6757;SDS011;3416;53.074;8.822;2023-02-20T13:09:30;17.40;;;8.73;;
6757;SDS011;3416;53.074;8.822;2023-02-20T13:12:01;13.18;;;7.35;;
6757;SDS011;3416;53.074;8.822;2023-02-20T13:14:33;16.38;;;9.60;;
6757;SDS011;3416;53.074;8.822;2023-02-20T13:17:11;10.90;;;7.43;;
6757;SDS011;3416;53.074;8.822;2023-02-20T13:20:19;14.00;;;8.18;;
6757;SDS011;3416;53.074;8.822;2023-02-20T13:25:58;18.50;;;8.55;;
6757;SDS011;3416;53.074;8.822;2023-02-20T13:28:28;12.70;;;8.57;;
6757;SDS011;3416;53.074;8.822;2023-02-20T13:31:17;9.52;;;7.28;;
6757;SDS011;3416;53.074;8.822;2023-02-20T13:33:46;12.57;;;7.00;;
6757;SDS011;3416;53.074;8.822;2023-02-20T13:42:28;9.85;;;6.88;;
6757;SDS011;3416;53.074;8.822;2023-02-20T13:45:00;15.25;;;9.10;;
6757;SDS011;3416;53.074;8.822;2023-02-20T13:47:34;16.67;;;9.82;;
6757;SDS011;3416;53.074;8.822;2023-02-20T13:52:53;16.50;;;8.13;;
6757;SDS011;3416;53.074;8.822;2023-02-20T13:55:22;17.83;;;9.80;;
6757;SDS011;3416;53.074;8.822;2023-02-20T13:57:53;13.93;;;8.38;;
6757;SDS011;3416;53.074;8.822;2023-02-20T14:00:24;15.68;;;9.27;;
6757;SDS011;3416;53.074;8.822;2023-02-20T14:02:54;12.45;;;8.40;;
6757;SDS011;3416;53.074;8.822;2023-02-20T14:05:24;13.40;;;8.63;;
6757;SDS011;3416;53.074;8.822;2023-02-20T14:07:53;16.00;;;8.77;;
6757;SDS011;3416;53.074;8.822;2023-02-20T14:10:23;17.92;;;8.05;;
6757;SDS011;3416;53.074;8.822;2023-02-20T14:12:56;10.80;;;8.10;;
6757;SDS011;3416;53.074;8.822;2023-02-20T14:15:25;15.32;;;8.15;;
6757;SDS011;3416;53.074;8.822;2023-02-20T14:17:55;20.13;;;10.45;;
6757;SDS011;3416;53.074;8.822;2023-02-20T14:20:24;15.73;;;8.38;;
6757;SDS011;3416;53.074;8.822;2023-02-20T14:23:07;15.85;;;8.65;;
6757;SDS011;3416;53.074;8.822;2023-02-20T14:25:41;12.23;;;8.32;;
6757;SDS011;3416;53.074;8.822;2023-02-20T14:28:18;13.68;;;8.20;;
6757;SDS011;3416;53.074;8.822;2023-02-20T14:30:45;13.50;;;9.20;;
6757;SDS011;3416;53.074;8.822;2023-02-20T14:33:20;16.25;;;9.50;;
6757;SDS011;3416;53.074;8.822;2023-02-20T14:35:53;12.60;;;7.93;;
6757;SDS011;3416;53.074;8.822;2023-02-20T14:38:34;13.52;;;9.18;;
6757;SDS011;3416;53.074;8.822;2023-02-20T14:41:11;11.82;;;7.97;;
6757;SDS011;3416;53.074;8.822;2023-02-20T14:43:56;13.65;;;7.28;;
6757;SDS011;3416;53.074;8.822;2023-02-20T14:46:25;20.00;;;8.73;;
6757;SDS011;3416;53.074;8.822;2023-02-20T14:51:48;14.48;;;8.38;;
6757;SDS011;3416;53.074;8.822;2023-02-20T14:54:17;20.05;;;9.30;;
6757;SDS011;3416;53.074;8.822;2023-02-20T14:56:46;14.40;;;8.73;;
6757;SDS011;3416;53.074;8.822;2023-02-20T14:59:27;13.00;;;8.20;;
6757;SDS011;3416;53.074;8.822;2023-02-20T15:02:02;16.55;;;8.32;;
6757;SDS011;3416;53.074;8.822;2023-02-20T15:04:49;17.13;;;8.23;;
6757;SDS011;3416;53.074;8.822;2023-02-20T15:07:18;11.43;;;8.13;;
6757;SDS011;3416;53.074;8.822;2023-02-20T15:09:48;14.15;;;8.63;;
6757;SDS011;3416;53.074;8.822;2023-02-20T15:12:20;20.05;;;8.57;;
6757;SDS011;3416;53.074;8.822;2023-02-20T15:14:53;13.95;;;8.05;;
6757;SDS011;3416;53.074;8.822;2023-02-20T15:17:24;13.55;;;8.90;;
6757;SDS011;3416;53.074;8.822;2023-02-20T15:19:54;14.82;;;9.02;;
6757;SDS011;3416;53.074;8.822;2023-02-20T15:22:27;14.68;;;8.80;;
6757;SDS011;3416;53.074;8.822;2023-02-20T15:25:12;24.17;;;8.88;;
6757;SDS011;3416;53.074;8.822;2023-02-20T15:28:01;18.73;;;11.45;;
6757;SDS011;3416;53.074;8.822;2023-02-20T15:33:32;16.48;;;8.68;;
6757;SDS011;3416;53.074;8.822;2023-02-20T15:36:01;13.25;;;8.60;;
6757;SDS011;3416;53.074;8.822;2023-02-20T15:38:37;14.25;;;8.38;;
6757;SDS011;3416;53.074;8.822;2023-02-20T15:41:05;17.27;;;9.02;;
6757;SDS011;3416;53.074;8.822;2023-02-20T15:43:33;15.90;;;9.15;;
6757;SDS011;3416;53.074;8.822;2023-02-20T15:46:00;14.65;;;8.93;;
6757;SDS011;3416;53.074;8.822;2023-02-20T15:48:28;13.23;;;8.80;;
6757;SDS011;3416;53.074;8.822;2023-02-20T15:50:55;12.13;;;7.82;;